Time;durP1;ratioP1;P1;durP2;ratioP2;P2;SDS_P1;SDS_P2;PMS_P1;PMS_P2;Temp;Humidity;BMP_temperature;BMP_pressure;BME280_temperature;BME280_humidity;BME280_pressure;Samples;Min_cycle;Max_cycle;Signal;HPM_P1;HPM_P2
2021/06/20 00:00:38;;;;;;;13.93;3.67;;;27.60;51.40;;;;;;6232892;28;20090;-75
2021/06/20 00:03:39;;;;;;;20.75;4.97;;;27.60;51.50;;;;;;6224508;28;20049;-77
2021/06/20 00:06:53;;;;;;;16.75;4.18;;;27.60;51.80;;;;;;6241281;28;20470;-76
2021/06/20 00:09:54;;;;;;;13.02;3.78;;;27.50;51.90;;;;;;6223122;28;20037;-77
2021/06/20 00:12:57;;;;;;;12.90;4.10;;;27.50;51.90;;;;;;6238560;28;20034;-78
2021/06/20 00:15:58;;;;;;;15.90;4.20;;;27.50;52.00;;;;;;6188866;28;20052;-77
2021/06/20 00:19:00;;;;;;;16.30;4.07;;;27.50;52.20;;;;;;6222745;28;20033;-77
2021/06/20 00:22:02;;;;;;;16.38;4.00;;;27.50;52.40;;;;;;6236665;28;20446;-76
2021/06/20 00:25:06;;;;;;;24.00;4.28;;;27.50;52.60;;;;;;6222907;28;20122;-77
2021/06/20 00:28:08;;;;;;;13.52;4.22;;;27.40;52.70;;;;;;6223324;28;20037;-76
2021/06/20 00:31:09;;;;;;;15.30;4.15;;;27.40;53.30;;;;;;6229573;28;20367;-76
2021/06/20 00:34:10;;;;;;;16.02;4.22;;;27.40;52.90;;;;;;6222005;28;20049;-76
2021/06/20 00:37:11;;;;;;;26.33;5.00;;;27.30;52.90;;;;;;6205992;28;20470;-76
2021/06/20 00:40:13;;;;;;;36.55;4.80;;;27.30;52.90;;;;;;6222827;28;20034;-76
2021/06/20 00:43:14;;;;;;;18.30;3.72;;;27.40;52.90;;;;;;6205844;28;20033;-76
2021/06/20 00:46:15;;;;;;;19.92;4.75;;;27.40;52.80;;;;;;6220673;28;20044;-77
2021/06/20 00:49:17;;;;;;;15.88;4.50;;;27.40;52.70;;;;;;6222946;28;20125;-77
2021/06/20 00:52:18;;;;;;;10.73;4.13;;;27.40;52.60;;;;;;6238175;28;20033;-78
2021/06/20 00:55:19;;;;;;;24.38;4.57;;;27.40;52.50;;;;;;6223811;28;20048;-77
2021/06/20 00:58:21;;;;;;;21.45;4.55;;;27.50;52.60;;;;;;6222309;28;20030;-77
2021/06/20 01:01:22;;;;;;;13.02;4.13;;;27.40;52.60;;;;;;6222655;28;20447;-77
2021/06/20 01:04:23;;;;;;;12.75;3.70;;;27.40;52.60;;;;;;6223539;28;20030;-76
2021/06/20 01:07:25;;;;;;;26.45;4.10;;;27.40;52.70;;;;;;6239015;28;20133;-77
2021/06/20 01:10:29;;;;;;;13.73;4.35;;;27.40;52.80;;;;;;6238052;28;20029;-77
2021/06/20 01:13:30;;;;;;;18.60;5.10;;;27.40;52.80;;;;;;6222474;28;20422;-77
2021/06/20 01:16:32;;;;;;;19.73;4.63;;;27.40;52.80;;;;;;6221697;28;20022;-77
2021/06/20 01:19:33;;;;;;;24.95;4.00;;;27.40;52.80;;;;;;6222704;28;20025;-76
2021/06/20 01:22:36;;;;;;;17.23;4.57;;;27.40;52.80;;;;;;6202098;28;20426;-77
2021/06/20 01:25:40;;;;;;;19.33;4.88;;;27.40;53.50;;;;;;6222319;28;20049;-76
2021/06/20 01:28:51;;;;;;;20.10;4.28;;;27.40;53.00;;;;;;6211797;28;20059;-76
2021/06/20 01:31:52;;;;;;;21.83;4.13;;;27.40;53.00;;;;;;6245390;28;20042;-77
2021/06/20 01:34:53;;;;;;;16.15;4.15;;;27.40;53.10;;;;;;6229693;28;20040;-76
2021/06/20 01:37:58;;;;;;;22.98;4.25;;;27.40;53.10;;;;;;6245780;28;20026;-77
2021/06/20 01:40:59;;;;;;;14.10;3.80;;;27.40;53.10;;;;;;6246530;28;20048;-76
2021/06/20 01:44:00;;;;;;;23.88;3.92;;;27.40;53.00;;;;;;6248702;28;20034;-76
2021/06/20 01:47:01;;;;;;;17.92;4.45;;;27.40;53.00;;;;;;6232550;28;20351;-76
2021/06/20 01:50:12;;;;;;;16.77;3.88;;;27.40;53.00;;;;;;6232916;28;20036;-76
2021/06/20 01:53:15;;;;;;;18.95;3.95;;;27.40;53.30;;;;;;6234319;28;20059;-76
2021/06/20 01:56:16;;;;;;;20.77;4.55;;;27.30;53.40;;;;;;6227454;28;20451;-76
2021/06/20 01:59:19;;;;;;;12.23;4.50;;;27.30;53.50;;;;;;6234036;28;20025;-76
2021/06/20 02:02:21;;;;;;;14.68;3.97;;;27.30;53.60;;;;;;6233568;28;20328;-77
2021/06/20 02:05:26;;;;;;;19.00;4.10;;;27.30;53.60;;;;;;6250311;28;20030;-76
2021/06/20 02:08:27;;;;;;;16.77;3.90;;;27.30;53.70;;;;;;6250477;28;20033;-76
2021/06/20 02:11:31;;;;;;;12.32;4.25;;;27.30;53.70;;;;;;6249883;28;20099;-77
2021/06/20 02:14:37;;;;;;;21.10;4.28;;;27.20;53.70;;;;;;6233837;28;20164;-77
2021/06/20 02:17:40;;;;;;;17.00;4.57;;;27.20;53.80;;;;;;6233957;28;20120;-77
2021/06/20 02:20:44;;;;;;;19.63;4.35;;;27.20;53.90;;;;;;6233648;28;20076;-77
2021/06/20 02:23:45;;;;;;;15.85;4.05;;;27.20;54.00;;;;;;6231181;28;20040;-77
2021/06/20 02:26:46;;;;;;;23.05;4.40;;;27.20;54.10;;;;;;6249985;28;20033;-76
2021/06/20 02:29:51;;;;;;;22.83;4.55;;;27.20;54.10;;;;;;6233541;28;20053;-77
2021/06/20 02:32:53;;;;;;;16.35;3.90;;;27.20;54.10;;;;;;6226306;28;20029;-77
2021/06/20 02:35:54;;;;;;;25.35;4.25;;;27.20;54.10;;;;;;6243757;28;20116;-76
2021/06/20 02:38:54;;;;;;;12.07;3.60;;;27.20;54.20;;;;;;6235239;28;20029;-77
2021/06/20 02:41:56;;;;;;;12.65;4.45;;;27.20;54.10;;;;;;6235000;28;20025;-77
2021/06/20 02:45:00;;;;;;;19.25;4.68;;;27.20;54.00;;;;;;6234005;28;20044;-78
2021/06/20 02:48:01;;;;;;;17.80;4.22;;;27.20;54.00;;;;;;6233852;28;20112;-75
2021/06/20 02:51:02;;;;;;;22.17;4.30;;;27.20;54.20;;;;;;6233722;28;20048;-76
2021/06/20 02:54:03;;;;;;;18.85;4.90;;;27.20;54.50;;;;;;6216920;28;20029;-76
2021/06/20 02:57:04;;;;;;;17.33;4.60;;;27.20;54.70;;;;;;6250735;28;20044;-76
2021/06/20 03:00:06;;;;;;;23.35;4.63;;;27.20;54.90;;;;;;6232186;28;20034;-76
2021/06/20 03:03:07;;;;;;;14.27;4.07;;;27.20;55.00;;;;;;6232831;28;20037;-76
2021/06/20 03:06:08;;;;;;;19.27;4.10;;;27.20;55.20;;;;;;6232597;28;20459;-76
2021/06/20 03:09:11;;;;;;;13.10;4.53;;;27.20;55.20;;;;;;6231105;28;20035;-76
2021/06/20 03:12:13;;;;;;;9.65;4.57;;;27.10;55.20;;;;;;6233319;28;20492;-77
2021/06/20 03:15:14;;;;;;;13.40;4.55;;;27.10;55.40;;;;;;6240807;28;20059;-75
2021/06/20 03:18:15;;;;;;;16.65;4.55;;;27.00;55.50;;;;;;6243688;28;20038;-77
2021/06/20 03:21:20;;;;;;;12.02;3.80;;;26.90;55.80;;;;;;6223354;28;20041;-77
2021/06/20 03:24:21;;;;;;;21.08;4.38;;;26.90;56.20;;;;;;6255278;28;20347;-77
2021/06/20 03:27:23;;;;;;;25.17;4.22;;;26.80;56.30;;;;;;6235101;28;20037;-77
2021/06/20 03:30:24;;;;;;;28.35;4.38;;;26.70;56.50;;;;;;6249245;28;20037;-76
2021/06/20 03:33:25;;;;;;;21.38;4.88;;;26.70;56.60;;;;;;6234045;28;20025;-76
2021/06/20 03:36:28;;;;;;;24.67;5.30;;;26.60;56.70;;;;;;6224159;28;20097;-77
2021/06/20 03:39:29;;;;;;;13.00;4.25;;;26.60;56.80;;;;;;6237500;28;20037;-76
2021/06/20 03:42:30;;;;;;;17.65;4.88;;;26.60;56.90;;;;;;6233583;28;20041;-77
2021/06/20 03:45:31;;;;;;;21.02;4.82;;;26.60;57.00;;;;;;6233440;28;20033;-77
2021/06/20 03:48:32;;;;;;;22.60;4.07;;;26.50;57.60;;;;;;6216463;28;20081;-77
2021/06/20 03:51:33;;;;;;;19.35;4.55;;;26.50;57.10;;;;;;6225699;28;20402;-77
2021/06/20 03:54:34;;;;;;;15.52;5.60;;;26.50;57.20;;;;;;6208552;28;20089;-77
2021/06/20 03:57:37;;;;;;;13.82;4.53;;;26.50;57.20;;;;;;6208474;28;20042;-77
2021/06/20 04:00:38;;;;;;;18.48;5.03;;;26.50;57.20;;;;;;6221954;28;20026;-77
2021/06/20 04:03:39;;;;;;;13.73;4.50;;;26.50;57.30;;;;;;6238538;28;20035;-75
2021/06/20 04:06:40;;;;;;;20.15;4.35;;;26.50;57.20;;;;;;6248537;28;20033;-76
2021/06/20 04:09:42;;;;;;;18.48;4.38;;;26.50;57.10;;;;;;6248880;28;20033;-76
2021/06/20 04:12:43;;;;;;;18.65;4.43;;;26.60;57.10;;;;;;6215140;28;20044;-76
2021/06/20 04:15:44;;;;;;;19.80;4.78;;;26.60;56.80;;;;;;6248663;28;20087;-76
2021/06/20 04:18:45;;;;;;;23.40;4.82;;;26.70;56.20;;;;;;6244417;28;20082;-75
2021/06/20 04:21:46;;;;;;;19.27;4.78;;;26.70;55.60;;;;;;6216253;28;20388;-75
2021/06/20 04:24:47;;;;;;;20.02;4.50;;;26.80;55.50;;;;;;6231974;28;20029;-77
2021/06/20 04:27:52;;;;;;;17.40;4.10;;;26.80;55.60;;;;;;6232056;28;20041;-75
2021/06/20 04:30:56;;;;;;;23.98;4.50;;;26.80;55.70;;;;;;6247870;28;20048;-76
2021/06/20 04:33:57;;;;;;;21.67;4.68;;;26.70;55.50;;;;;;6221331;28;20040;-75
2021/06/20 04:36:58;;;;;;;21.55;4.53;;;26.90;55.30;;;;;;6215635;28;20124;-76
2021/06/20 04:40:03;;;;;;;20.65;4.30;;;26.90;55.10;;;;;;6247865;28;20044;-77
2021/06/20 04:43:07;;;;;;;26.30;5.18;;;27.00;54.80;;;;;;6232229;28;20085;-76
2021/06/20 04:46:22;;;;;;;25.58;4.57;;;27.10;54.60;;;;;;6247940;28;20400;-77
2021/06/20 04:49:23;;;;;;;26.98;4.85;;;27.20;54.60;;;;;;6230576;28;20354;-75
2021/06/20 04:52:25;;;;;;;12.68;4.38;;;27.30;54.80;;;;;;6236141;28;20042;-76
2021/06/20 04:55:28;;;;;;;15.15;4.40;;;27.40;54.10;;;;;;6213860;28;20053;-76
2021/06/20 04:58:29;;;;;;;18.60;4.38;;;27.40;53.90;;;;;;6230321;28;20037;-76
2021/06/20 05:01:34;;;;;;;22.85;4.70;;;27.50;53.70;;;;;;6233532;28;20033;-76
2021/06/20 05:04:36;;;;;;;21.95;4.50;;;27.50;53.50;;;;;;6267523;28;20035;-76
2021/06/20 05:07:37;;;;;;;19.38;4.38;;;27.60;53.40;;;;;;6272019;28;20026;-77
2021/06/20 05:10:41;;;;;;;18.02;3.85;;;27.60;53.20;;;;;;6272333;28;20025;-77
2021/06/20 05:13:42;;;;;;;23.88;4.63;;;27.70;53.20;;;;;;6265814;28;20029;-76
2021/06/20 05:16:43;;;;;;;28.25;4.97;;;27.70;53.00;;;;;;6228851;28;20350;-76
2021/06/20 05:19:44;;;;;;;22.75;4.35;;;27.70;52.80;;;;;;6246493;28;20065;-75
2021/06/20 05:22:45;;;;;;;27.60;4.80;;;27.70;52.70;;;;;;6233622;28;20030;-76
2021/06/20 05:25:47;;;;;;;16.45;4.25;;;27.80;52.70;;;;;;6232363;28;20029;-76
2021/06/20 05:28:48;;;;;;;14.13;4.15;;;27.80;52.50;;;;;;6218222;28;20021;-76
2021/06/20 05:31:49;;;;;;;26.23;4.95;;;27.90;52.40;;;;;;6252013;28;20061;-76
2021/06/20 05:34:50;;;;;;;18.75;3.88;;;27.90;52.10;;;;;;6250195;28;20079;-76
2021/06/20 05:37:52;;;;;;;22.02;4.32;;;27.90;52.00;;;;;;6234794;28;20044;-76
2021/06/20 05:40:53;;;;;;;15.45;4.68;;;28.00;52.00;;;;;;6234770;28;20030;-75
2021/06/20 05:43:55;;;;;;;16.98;4.82;;;28.00;51.80;;;;;;6239400;28;20455;-76
2021/06/20 05:46:56;;;;;;;19.98;3.95;;;28.00;51.70;;;;;;6233955;28;20427;-76
2021/06/20 05:49:57;;;;;;;13.85;3.72;;;28.10;51.70;;;;;;6233591;28;20030;-76
2021/06/20 05:52:58;;;;;;;22.80;4.63;;;28.10;51.50;;;;;;6234547;28;20045;-76
2021/06/20 05:55:59;;;;;;;20.05;4.70;;;28.10;51.30;;;;;;6251099;28;20565;-76
2021/06/20 05:59:00;;;;;;;23.33;4.55;;;28.10;51.20;;;;;;6233913;28;20030;-77
2021/06/20 06:02:01;;;;;;;12.32;4.40;;;28.20;51.20;;;;;;6249545;28;20496;-76
2021/06/20 06:05:04;;;;;;;27.77;4.32;;;28.20;51.30;;;;;;6216906;28;20030;-77
2021/06/20 06:08:05;;;;;;;24.23;4.70;;;28.20;51.50;;;;;;6228683;28;20056;-75
2021/06/20 06:11:06;;;;;;;20.17;4.63;;;28.20;51.60;;;;;;6250175;28;20034;-77
2021/06/20 06:14:09;;;;;;;24.38;4.80;;;28.20;51.70;;;;;;6250128;28;20030;-76
2021/06/20 06:17:10;;;;;;;18.15;4.07;;;28.10;52.20;;;;;;6234202;28;20036;-76
2021/06/20 06:20:12;;;;;;;14.98;4.88;;;28.20;51.50;;;;;;6207252;28;20327;-76
2021/06/20 06:23:13;;;;;;;18.90;4.30;;;28.20;51.40;;;;;;6250168;28;20029;-77
2021/06/20 06:26:14;;;;;;;17.55;4.93;;;28.20;51.30;;;;;;6237998;28;20037;-77
2021/06/20 06:29:15;;;;;;;20.63;4.82;;;28.20;51.30;;;;;;6249184;28;20041;-77
2021/06/20 06:32:16;;;;;;;26.58;5.28;;;28.30;51.20;;;;;;6248525;28;20434;-76
2021/06/20 06:35:18;;;;;;;17.48;4.97;;;28.30;51.10;;;;;;6228363;28;20029;-76
2021/06/20 06:38:19;;;;;;;17.55;4.45;;;28.40;50.80;;;;;;6224537;28;20399;-77
2021/06/20 06:41:20;;;;;;;19.15;4.72;;;28.50;50.60;;;;;;6231872;28;20334;-76
2021/06/20 06:44:25;;;;;;;23.48;4.72;;;28.40;50.60;;;;;;6248873;28;20037;-76
2021/06/20 06:47:27;;;;;;;16.73;4.68;;;28.40;50.60;;;;;;6233017;28;20052;-77
2021/06/20 06:50:28;;;;;;;18.13;4.75;;;28.50;50.50;;;;;;6225877;28;20057;-76
2021/06/20 06:53:32;;;;;;;21.30;4.47;;;28.60;50.30;;;;;;6233315;28;20066;-77
2021/06/20 06:56:34;;;;;;;16.65;4.70;;;28.70;50.30;;;;;;6225163;28;20120;-78
2021/06/20 06:59:35;;;;;;;16.55;4.68;;;28.70;50.20;;;;;;6230561;28;20393;-77
2021/06/20 07:02:37;;;;;;;25.30;4.68;;;28.70;50.20;;;;;;6239236;28;20025;-77
2021/06/20 07:05:44;;;;;;;23.45;4.57;;;28.70;50.20;;;;;;6259480;28;20025;-78
2021/06/20 07:08:45;;;;;;;24.45;5.00;;;28.80;50.10;;;;;;6257173;28;20033;-78
2021/06/20 07:11:46;;;;;;;23.83;4.47;;;28.90;50.50;;;;;;6249604;28;20086;-77
2021/06/20 07:14:47;;;;;;;18.90;4.22;;;29.00;49.60;;;;;;6247244;28;20036;-77
2021/06/20 07:17:50;;;;;;;23.35;4.30;;;29.20;49.40;;;;;;6232751;28;20044;-77
2021/06/20 07:20:51;;;;;;;24.27;4.40;;;29.40;48.90;;;;;;6242246;28;20033;-77
2021/06/20 07:23:53;;;;;;;26.85;4.60;;;29.60;48.50;;;;;;6232050;28;20493;-77
2021/06/20 07:26:54;;;;;;;33.50;4.93;;;29.70;48.10;;;;;;6249990;28;20029;-76
2021/06/20 07:29:55;;;;;;;23.58;4.70;;;29.90;47.50;;;;;;6232185;28;20461;-78
2021/06/20 07:32:56;;;;;;;23.50;4.57;;;30.00;47.20;;;;;;6238432;28;20082;-80
2021/06/20 07:35:57;;;;;;;21.80;4.55;;;30.10;46.80;;;;;;6266862;28;20040;-78
2021/06/20 07:38:59;;;;;;;30.63;4.72;;;30.20;46.80;;;;;;6265317;28;20029;-79
2021/06/20 07:42:00;;;;;;;32.80;4.50;;;30.40;46.70;;;;;;6245431;28;20034;-79
2021/06/20 07:45:02;;;;;;;38.33;5.28;;;30.50;46.30;;;;;;6233446;28;20388;-78
2021/06/20 07:48:06;;;;;;;32.53;5.68;;;30.60;45.90;;;;;;6231980;28;20064;-78
2021/06/20 07:51:10;;;;;;;28.10;4.80;;;30.80;45.80;;;;;;6249423;28;20458;-78
2021/06/20 07:54:11;;;;;;;18.15;4.72;;;31.00;45.50;;;;;;6229669;28;20465;-79
2021/06/20 07:57:12;;;;;;;24.17;4.55;;;31.10;45.00;;;;;;6264545;28;20064;-80
2021/06/20 08:00:14;;;;;;;37.80;4.30;;;31.20;44.90;;;;;;6273360;28;20021;-79
2021/06/20 08:03:16;;;;;;;19.70;4.30;;;31.20;44.80;;;;;;6245787;28;20025;-79
2021/06/20 08:06:17;;;;;;;24.20;3.95;;;31.30;44.60;;;;;;6255943;28;20036;-78
2021/06/20 08:09:19;;;;;;;31.10;4.00;;;31.40;44.30;;;;;;6245399;28;20053;-76
2021/06/20 08:12:20;;;;;;;30.05;4.57;;;31.60;44.00;;;;;;6255215;28;20040;-78
2021/06/20 08:15:22;;;;;;;21.63;3.40;;;31.70;43.50;;;;;;6253867;28;20066;-78
2021/06/20 08:18:26;;;;;;;30.55;4.53;;;31.90;42.60;;;;;;6249620;28;20033;-76
2021/06/20 08:21:27;;;;;;;26.08;4.03;;;31.90;42.10;;;;;;6222814;28;20034;-75
2021/06/20 08:24:31;;;;;;;17.13;3.60;;;32.10;41.80;;;;;;6239397;28;20040;-78
2021/06/20 08:27:32;;;;;;;22.50;4.82;;;32.00;41.70;;;;;;6230150;28;20040;-78
2021/06/20 08:30:38;;;;;;;34.28;5.22;;;31.60;42.10;;;;;;6230244;28;20128;-78
2021/06/20 08:33:39;;;;;;;23.65;3.85;;;31.30;42.60;;;;;;6236245;28;20096;-78
2021/06/20 08:36:43;;;;;;;26.65;4.38;;;31.20;42.70;;;;;;6251031;28;20104;-76
2021/06/20 08:39:46;;;;;;;33.70;4.80;;;31.20;42.40;;;;;;6234456;28;20033;-78
2021/06/20 08:42:48;;;;;;;39.88;4.15;;;31.30;41.80;;;;;;6230158;28;20506;-80
2021/06/20 08:45:56;;;;;;;27.98;4.40;;;31.40;41.70;;;;;;6237033;28;20036;-79
2021/06/20 08:48:58;;;;;;;;;;;31.60;41.70;;;;;;6255691;28;20025;-79
2021/06/20 08:52:00;;;;;;;20.20;4.00;;;31.70;41.40;;;;;;6255145;28;19916;-77
2021/06/20 08:55:03;;;;;;;35.42;6.70;;;31.70;41.10;;;;;;6277500;28;20032;-78
2021/06/20 08:58:20;;;;;;;43.08;9.90;;;31.80;40.70;;;;;;6240700;28;20438;-78
2021/06/20 09:01:21;;;;;;;35.65;5.22;;;31.90;40.50;;;;;;6256872;28;20410;-81
2021/06/20 09:04:32;;;;;;;28.60;3.90;;;32.20;40.50;;;;;;6232184;28;20059;-79
2021/06/20 09:07:41;;;;;;;34.80;4.00;;;32.30;38.90;;;;;;6261242;28;20048;-78
2021/06/20 09:10:42;;;;;;;36.75;4.30;;;32.50;38.70;;;;;;6229580;28;20033;-78
2021/06/20 09:13:43;;;;;;;39.80;4.18;;;32.70;38.60;;;;;;6255356;28;20450;-78
2021/06/20 09:16:47;;;;;;;32.33;4.22;;;32.90;38.20;;;;;;6235558;28;20064;-79
2021/06/20 09:19:54;;;;;;;26.98;3.92;;;33.20;37.70;;;;;;6219766;28;20435;-79
2021/06/20 09:22:57;;;;;;;21.65;3.55;;;33.30;37.20;;;;;;6220279;28;20099;-79
2021/06/20 09:26:00;;;;;;;22.17;3.47;;;33.50;37.00;;;;;;6228474;28;20055;-79
2021/06/20 09:29:05;;;;;;;29.95;4.43;;;33.60;36.70;;;;;;6243393;28;20034;-79
2021/06/20 09:32:09;;;;;;;34.85;3.88;;;33.80;36.10;;;;;;6229006;28;20128;-78
2021/06/20 09:35:11;;;;;;;25.38;3.55;;;33.90;35.50;;;;;;6206186;28;20036;-82
2021/06/20 09:38:30;;;;;;;26.52;4.05;;;34.10;34.50;;;;;;6245901;28;20434;-79
2021/06/20 09:41:31;;;;;;;33.10;3.55;;;34.20;34.40;;;;;;6218449;28;20036;-78
2021/06/20 09:44:32;;;;;;;28.00;5.32;;;34.40;34.40;;;;;;6245316;28;20021;-77
2021/06/20 09:47:41;;;;;;;37.63;4.47;;;34.50;33.60;;;;;;6237588;28;20087;-78
2021/06/20 09:50:42;;;;;;;23.00;3.63;;;34.50;33.20;;;;;;6269905;28;20457;-79
2021/06/20 09:53:44;;;;;;;27.98;3.63;;;34.50;32.00;;;;;;6270378;28;20090;-79
2021/06/20 09:56:48;;;;;;;23.70;3.30;;;34.60;30.00;;;;;;6270150;28;20063;-85
2021/06/20 10:00:00;;;;;;;23.25;3.42;;;34.70;29.00;;;;;;6253935;28;20437;-81
2021/06/20 10:03:02;;;;;;;17.80;4.32;;;34.80;29.50;;;;;;6265420;28;20116;-78
2021/06/20 10:06:04;;;;;;;15.50;3.22;;;35.00;31.20;;;;;;6257805;28;20041;-81
2021/06/20 10:09:08;;;;;;;23.92;3.45;;;34.90;32.70;;;;;;6275498;28;20048;-77
2021/06/20 10:12:09;;;;;;;26.42;4.28;;;34.90;33.10;;;;;;6258159;28;20454;-79
2021/06/20 10:15:14;;;;;;;29.65;3.80;;;34.80;33.00;;;;;;6256590;28;20029;-78
2021/06/20 10:18:16;;;;;;;20.80;3.83;;;34.90;33.70;;;;;;6273647;28;20446;-79
2021/06/20 10:21:41;;;;;;;24.23;3.80;;;34.80;34.30;;;;;;6247225;28;20116;-79
2021/06/20 10:24:55;;;;;;;22.38;4.70;;;34.50;35.10;;;;;;6257522;28;20021;-80
2021/06/20 10:28:19;;;;;;;19.75;3.00;;;34.40;35.70;;;;;;6276500;28;20044;-78
2021/06/20 10:31:37;;;;;;;31.35;4.85;;;34.10;35.90;;;;;;6263304;28;20040;-78
2021/06/20 10:35:00;;;;;;;24.40;3.83;;;33.80;36.30;;;;;;6248561;28;20053;-79
2021/06/20 10:38:08;;;;;;;29.55;3.95;;;33.50;36.70;;;;;;6265531;28;20029;-79
2021/06/20 10:41:30;;;;;;;19.83;3.95;;;33.20;37.10;;;;;;6256590;28;20086;-80
2021/06/20 10:45:02;;;;;;;26.73;3.30;;;32.80;37.20;;;;;;6271599;28;20029;-82
2021/06/20 10:48:23;;;;;;;31.15;5.32;;;32.50;38.30;;;;;;6269394;28;20047;-78
2021/06/20 10:51:33;;;;;;;28.42;3.90;;;31.60;42.70;;;;;;6269506;28;20033;-78
2021/06/20 10:54:40;;;;;;;20.15;3.28;;;30.40;45.00;;;;;;6253296;28;20039;-78
2021/06/20 10:57:57;;;;;;;25.77;4.05;;;29.60;48.20;;;;;;6273588;28;20028;-78
2021/06/20 11:01:11;;;;;;;28.92;4.43;;;29.20;49.10;;;;;;6244824;28;20029;-77
2021/06/20 11:04:14;;;;;;;18.85;4.00;;;29.10;49.10;;;;;;6223909;28;20403;-78
2021/06/20 11:07:24;;;;;;;21.15;3.50;;;29.10;49.60;;;;;;6237635;28;20035;-76
2021/06/20 11:10:25;;;;;;;17.50;3.28;;;29.30;49.50;;;;;;6254054;28;20109;-77
2021/06/20 11:13:26;;;;;;;39.58;11.38;;;29.50;48.40;;;;;;6253192;28;20159;-77
2021/06/20 11:16:29;;;;;;;64.63;21.55;;;29.80;48.10;;;;;;6270720;28;20148;-78
2021/06/20 11:19:31;;;;;;;150.48;51.03;;;30.10;47.50;;;;;;6251515;28;20033;-77
2021/06/20 11:22:32;;;;;;;27.10;5.80;;;30.20;47.50;;;;;;6252585;28;20460;-76
2021/06/20 11:25:33;;;;;;;38.55;12.15;;;30.20;47.70;;;;;;6253586;28;20458;-76
2021/06/20 11:28:34;;;;;;;38.10;7.35;;;30.30;48.40;;;;;;6254755;28;20465;-76
2021/06/20 11:31:47;;;;;;;41.42;11.32;;;30.40;48.50;;;;;;6253095;28;20040;-76
2021/06/20 11:35:05;;;;;;;31.00;4.18;;;30.50;48.20;;;;;;6241021;28;20060;-76
2021/06/20 11:38:07;;;;;;;32.42;3.85;;;30.60;47.40;;;;;;6254835;28;20026;-77
2021/06/20 11:41:14;;;;;;;23.08;4.28;;;30.80;46.50;;;;;;6213529;28;20107;-77
2021/06/20 11:44:16;;;;;;;22.15;4.78;;;30.90;46.40;;;;;;6246334;28;20037;-76
2021/06/20 11:47:29;;;;;;;19.42;4.55;;;30.80;46.40;;;;;;6228310;28;20029;-77
2021/06/20 11:50:33;;;;;;;27.08;4.03;;;30.90;46.80;;;;;;6246051;28;20072;-77
2021/06/20 11:53:35;;;;;;;21.13;4.97;;;31.10;46.50;;;;;;6232604;28;20113;-77
2021/06/20 11:56:38;;;;;;;35.30;5.70;;;31.50;46.50;;;;;;6233497;28;20030;-77
2021/06/20 11:59:40;;;;;;;28.27;4.75;;;31.90;46.00;;;;;;6240194;28;20088;-75
2021/06/20 12:02:43;;;;;;;29.52;5.95;;;32.10;45.40;;;;;;6235584;28;20041;-77
2021/06/20 12:05:45;;;;;;;29.73;3.80;;;32.50;44.70;;;;;;6223421;28;20084;-77
2021/06/20 12:08:46;;;;;;;26.90;4.82;;;32.80;43.40;;;;;;6248428;28;20343;-77
2021/06/20 12:11:59;;;;;;;23.35;4.53;;;32.90;42.80;;;;;;6255422;28;20029;-77
2021/06/20 12:15:03;;;;;;;32.22;4.22;;;32.90;42.50;;;;;;6236888;28;20052;-76
2021/06/20 12:18:10;;;;;;;21.42;4.50;;;32.80;42.40;;;;;;6246035;28;20061;-82
2021/06/20 12:21:25;;;;;;;25.10;3.97;;;32.90;42.30;;;;;;6204000;28;20053;-82
2021/06/20 12:24:35;;;;;;;18.40;4.07;;;33.20;41.80;;;;;;6241681;28;20079;-81
2021/06/20 12:27:39;;;;;;;26.55;4.75;;;33.20;41.00;;;;;;6195579;28;20029;-82
2021/06/20 12:30:42;;;;;;;23.33;3.95;;;33.10;41.00;;;;;;6225510;28;20111;-80
2021/06/20 12:33:43;;;;;;;27.45;3.88;;;33.00;41.40;;;;;;6234197;28;20030;-80
2021/06/20 12:36:44;;;;;;;29.33;4.47;;;33.10;41.00;;;;;;6228044;28;20411;-80
2021/06/20 12:39:55;;;;;;;19.58;3.17;;;33.50;40.00;;;;;;6226757;28;20091;-81
2021/06/20 12:42:58;;;;;;;23.27;3.78;;;34.20;38.90;;;;;;6228754;28;20397;-83
2021/06/20 12:46:09;;;;;;;19.33;3.75;;;34.50;37.40;;;;;;6229378;28;20037;-83
2021/06/20 12:49:12;;;;;;;22.02;3.63;;;34.50;36.90;;;;;;6219733;28;20029;-84
2021/06/20 12:52:16;;;;;;;28.17;3.83;;;34.20;37.30;;;;;;6219788;28;20354;-82
2021/06/20 12:55:18;;;;;;;21.35;3.67;;;34.30;37.40;;;;;;6245963;28;20041;-82
2021/06/20 12:58:19;;;;;;;18.13;3.65;;;34.40;37.00;;;;;;6228758;28;20041;-80
2021/06/20 13:01:20;;;;;;;31.92;4.07;;;34.20;36.80;;;;;;6221646;28;20438;-81
2021/06/20 13:04:21;;;;;;;14.18;3.13;;;34.10;37.10;;;;;;6231304;28;20025;-81
2021/06/20 13:07:40;;;;;;;25.70;3.33;;;34.30;36.40;;;;;;6243804;28;20037;-86
2021/06/20 13:10:45;;;;;;;23.08;3.63;;;35.10;34.90;;;;;;6230744;28;20049;-81
2021/06/20 13:13:46;;;;;;;22.33;4.25;;;35.70;33.50;;;;;;6252013;28;20116;-82
2021/06/20 13:16:48;;;;;;;16.77;3.35;;;36.30;32.80;;;;;;6252009;28;20033;-82
2021/06/20 13:19:48;;;;;;;20.85;3.10;;;36.80;32.20;;;;;;6270113;28;20063;-84
2021/06/20 13:22:52;;;;;;;27.58;3.97;;;37.20;31.70;;;;;;6227724;28;20389;-79
2021/06/20 13:25:53;;;;;;;19.67;3.25;;;37.50;31.30;;;;;;6254227;28;20026;-77
2021/06/20 13:28:58;;;;;;;23.02;3.72;;;37.60;31.20;;;;;;6226357;28;20026;-80
2021/06/20 13:31:59;;;;;;;19.25;3.22;;;37.20;31.80;;;;;;6207560;28;20078;-79
2021/06/20 13:35:00;;;;;;;33.13;4.90;;;36.60;32.70;;;;;;6246417;28;20107;-80
2021/06/20 13:38:01;;;;;;;21.58;3.38;;;36.00;33.60;;;;;;6227732;28;20025;-79
2021/06/20 13:41:02;;;;;;;19.20;3.28;;;35.50;34.50;;;;;;6217830;28;20056;-80
2021/06/20 13:44:04;;;;;;;40.10;4.70;;;35.00;35.30;;;;;;6221417;28;20354;-80
2021/06/20 13:47:07;;;;;;;22.13;3.47;;;34.40;36.40;;;;;;6249682;28;20081;-79
2021/06/20 13:50:10;;;;;;;23.33;3.45;;;34.00;37.10;;;;;;6250642;28;20045;-79
2021/06/20 13:53:11;;;;;;;24.80;3.78;;;33.80;37.70;;;;;;6243321;28;20396;-80
2021/06/20 13:56:12;;;;;;;20.13;3.88;;;33.70;38.20;;;;;;6248540;28;20028;-79
2021/06/20 13:59:17;;;;;;;28.35;3.67;;;33.50;38.80;;;;;;6232421;28;20422;-79
2021/06/20 14:02:20;;;;;;;23.08;3.55;;;33.10;39.50;;;;;;6232148;28;20025;-79
2021/06/20 14:05:21;;;;;;;25.52;4.35;;;32.80;40.20;;;;;;6248705;28;20039;-79
2021/06/20 14:08:22;;;;;;;16.10;2.67;;;32.40;40.90;;;;;;6238773;28;20043;-78
2021/06/20 14:11:26;;;;;;;26.58;4.72;;;32.10;41.50;;;;;;6274098;28;20098;-78
2021/06/20 14:14:27;;;;;;;26.58;3.47;;;31.90;42.10;;;;;;6256264;28;20408;-80
2021/06/20 14:17:28;;;;;;;19.17;4.70;;;31.60;42.50;;;;;;6250246;28;20076;-79
2021/06/20 14:20:29;;;;;;;28.92;3.25;;;31.40;43.10;;;;;;6232954;28;20066;-84
2021/06/20 14:23:30;;;;;;;24.15;3.35;;;31.10;43.80;;;;;;6248903;28;20037;-79
2021/06/20 14:26:32;;;;;;;17.15;2.95;;;31.00;44.30;;;;;;6215477;28;20104;-78
2021/06/20 14:29:36;;;;;;;30.95;3.40;;;31.20;44.40;;;;;;6231503;28;20100;-78
2021/06/20 14:32:37;;;;;;;22.35;3.25;;;31.60;43.70;;;;;;6232828;28;20033;-78
2021/06/20 14:35:38;;;;;;;23.67;3.33;;;32.00;42.90;;;;;;6233164;28;20044;-78
2021/06/20 14:38:39;;;;;;;24.85;4.20;;;32.40;41.90;;;;;;6272660;28;20025;-78
2021/06/20 14:41:40;;;;;;;17.10;2.60;;;32.60;41.10;;;;;;6252438;28;20038;-77
2021/06/20 14:44:41;;;;;;;21.73;2.25;;;32.80;40.80;;;;;;6218718;28;20079;-78
2021/06/20 14:47:43;;;;;;;6.25;1.27;;;32.60;40.40;;;;;;6227298;28;20037;-79
2021/06/20 14:50:44;;;;;;;4.43;1.05;;;32.40;39.40;;;;;;6238413;28;20087;-78
2021/06/20 14:53:45;;;;;;;8.80;1.08;;;32.00;39.50;;;;;;6248354;28;20049;-77
2021/06/20 14:56:46;;;;;;;3.63;0.60;;;31.50;39.60;;;;;;6228696;28;20040;-78
2021/06/20 14:59:47;;;;;;;2.22;0.70;;;30.90;39.60;;;;;;6197600;28;20030;-78
2021/06/20 15:02:49;;;;;;;4.72;0.80;;;30.60;40.30;;;;;;6220307;28;20029;-77
2021/06/20 15:05:54;;;;;;;3.13;0.65;;;30.40;40.40;;;;;;6225620;28;20044;-77
2021/06/20 15:08:55;;;;;;;1.70;0.47;;;30.10;40.70;;;;;;6256553;28;20024;-78
2021/06/20 15:11:56;;;;;;;6.18;0.60;;;29.90;41.10;;;;;;6232242;28;20034;-79
2021/06/20 15:15:07;;;;;;;3.35;0.55;;;29.80;40.80;;;;;;6224931;28;20034;-79
2021/06/20 15:18:12;;;;;;;4.07;0.80;;;30.00;40.70;;;;;;6222020;28;20429;-77
2021/06/20 15:21:13;;;;;;;7.88;1.20;;;30.00;40.40;;;;;;6236222;28;20418;-78
2021/06/20 15:24:15;;;;;;;5.90;0.90;;;30.10;39.80;;;;;;6245117;28;20060;-78
2021/06/20 15:27:18;;;;;;;9.88;0.82;;;29.90;40.00;;;;;;6249942;28;20057;-78
2021/06/20 15:30:20;;;;;;;2.75;1.13;;;29.90;39.30;;;;;;6272213;28;20083;-78
2021/06/20 15:33:23;;;;;;;11.38;0.90;;;29.80;39.20;;;;;;6260096;28;20060;-77
2021/06/20 15:36:27;;;;;;;8.68;1.10;;;29.60;38.60;;;;;;6256631;28;20130;-77
2021/06/20 15:39:31;;;;;;;9.93;1.52;;;29.40;39.00;;;;;;6260498;28;20026;-78
2021/06/20 15:42:35;;;;;;;6.40;1.17;;;29.20;38.70;;;;;;6253173;28;20026;-78